sensor_id;sensor_type;location;lat;lon;timestamp;P1;durP1;ratioP1;P2;durP2;ratioP2
7199;SDS011;3641;49.082;8.200;2022-12-01T00:01:10;19.38;;;9.98;;
7199;SDS011;3641;49.082;8.200;2022-12-01T00:03:37;20.88;;;10.50;;
7199;SDS011;3641;49.082;8.200;2022-12-01T00:06:04;23.02;;;11.27;;
7199;SDS011;3641;49.082;8.200;2022-12-01T00:08:32;22.42;;;11.25;;
7199;SDS011;3641;49.082;8.200;2022-12-01T00:11:03;24.63;;;11.40;;
7199;SDS011;3641;49.082;8.200;2022-12-01T00:13:30;21.23;;;11.27;;
7199;SDS011;3641;49.082;8.200;2022-12-01T00:15:57;22.98;;;11.27;;
7199;SDS011;3641;49.082;8.200;2022-12-01T00:18:23;22.92;;;12.35;;
7199;SDS011;3641;49.082;8.200;2022-12-01T00:20:50;22.40;;;11.23;;
7199;SDS011;3641;49.082;8.200;2022-12-01T00:23:20;22.02;;;11.68;;
7199;SDS011;3641;49.082;8.200;2022-12-01T00:25:47;23.50;;;12.10;;
7199;SDS011;3641;49.082;8.200;2022-12-01T00:28:15;24.75;;;12.15;;
7199;SDS011;3641;49.082;8.200;2022-12-01T00:30:41;23.77;;;11.85;;
7199;SDS011;3641;49.082;8.200;2022-12-01T00:33:08;28.25;;;13.98;;
7199;SDS011;3641;49.082;8.200;2022-12-01T00:35:34;25.85;;;12.57;;
7199;SDS011;3641;49.082;8.200;2022-12-01T00:38:01;29.67;;;14.13;;
7199;SDS011;3641;49.082;8.200;2022-12-01T00:40:27;24.75;;;12.60;;
7199;SDS011;3641;49.082;8.200;2022-12-01T00:42:54;27.73;;;13.13;;
7199;SDS011;3641;49.082;8.200;2022-12-01T00:45:22;31.30;;;14.85;;
7199;SDS011;3641;49.082;8.200;2022-12-01T00:47:48;29.38;;;13.60;;
7199;SDS011;3641;49.082;8.200;2022-12-01T00:50:15;26.60;;;13.52;;
7199;SDS011;3641;49.082;8.200;2022-12-01T00:52:41;28.88;;;14.23;;
7199;SDS011;3641;49.082;8.200;2022-12-01T00:55:08;30.30;;;14.77;;
7199;SDS011;3641;49.082;8.200;2022-12-01T00:57:35;29.70;;;13.45;;
7199;SDS011;3641;49.082;8.200;2022-12-01T01:00:01;28.60;;;14.20;;
7199;SDS011;3641;49.082;8.200;2022-12-01T01:02:31;29.27;;;14.60;;
7199;SDS011;3641;49.082;8.200;2022-12-01T01:04:57;32.17;;;14.60;;
7199;SDS011;3641;49.082;8.200;2022-12-01T01:07:24;29.65;;;14.75;;
7199;SDS011;3641;49.082;8.200;2022-12-01T01:09:50;26.92;;;13.55;;
7199;SDS011;3641;49.082;8.200;2022-12-01T01:12:17;27.10;;;13.77;;
7199;SDS011;3641;49.082;8.200;2022-12-01T01:14:43;31.48;;;15.35;;
7199;SDS011;3641;49.082;8.200;2022-12-01T01:17:10;29.83;;;14.30;;
7199;SDS011;3641;49.082;8.200;2022-12-01T01:19:38;35.10;;;15.32;;
7199;SDS011;3641;49.082;8.200;2022-12-01T01:22:04;29.75;;;15.05;;
7199;SDS011;3641;49.082;8.200;2022-12-01T01:24:31;31.83;;;15.15;;
7199;SDS011;3641;49.082;8.200;2022-12-01T01:26:57;32.78;;;15.98;;
7199;SDS011;3641;49.082;8.200;2022-12-01T01:29:24;30.27;;;14.02;;
7199;SDS011;3641;49.082;8.200;2022-12-01T01:31:50;32.53;;;16.17;;
7199;SDS011;3641;49.082;8.200;2022-12-01T01:34:17;32.40;;;15.15;;
7199;SDS011;3641;49.082;8.200;2022-12-01T01:36:45;27.85;;;14.40;;
7199;SDS011;3641;49.082;8.200;2022-12-01T01:39:12;28.33;;;15.35;;
7199;SDS011;3641;49.082;8.200;2022-12-01T01:41:38;33.67;;;15.70;;
7199;SDS011;3641;49.082;8.200;2022-12-01T01:47:11;32.33;;;16.05;;
7199;SDS011;3641;49.082;8.200;2022-12-01T01:49:38;36.33;;;16.25;;
7199;SDS011;3641;49.082;8.200;2022-12-01T01:52:07;34.13;;;16.92;;
7199;SDS011;3641;49.082;8.200;2022-12-01T01:54:35;34.13;;;16.95;;
7199;SDS011;3641;49.082;8.200;2022-12-01T01:57:05;35.55;;;17.35;;
7199;SDS011;3641;49.082;8.200;2022-12-01T01:59:37;33.60;;;16.42;;
7199;SDS011;3641;49.082;8.200;2022-12-01T02:02:06;38.72;;;17.40;;
7199;SDS011;3641;49.082;8.200;2022-12-01T02:04:35;35.05;;;16.67;;
7199;SDS011;3641;49.082;8.200;2022-12-01T02:07:05;32.75;;;16.80;;
7199;SDS011;3641;49.082;8.200;2022-12-01T02:09:33;35.22;;;16.73;;
7199;SDS011;3641;49.082;8.200;2022-12-01T02:12:02;35.42;;;17.13;;
7199;SDS011;3641;49.082;8.200;2022-12-01T02:14:39;35.45;;;17.73;;
7199;SDS011;3641;49.082;8.200;2022-12-01T02:17:17;36.80;;;16.63;;
7199;SDS011;3641;49.082;8.200;2022-12-01T02:20:06;35.97;;;17.67;;
7199;SDS011;3641;49.082;8.200;2022-12-01T02:23:08;36.92;;;17.15;;
7199;SDS011;3641;49.082;8.200;2022-12-01T02:26:00;35.20;;;17.88;;
7199;SDS011;3641;49.082;8.200;2022-12-01T02:28:47;33.13;;;17.42;;
7199;SDS011;3641;49.082;8.200;2022-12-01T02:31:27;35.33;;;17.65;;
7199;SDS011;3641;49.082;8.200;2022-12-01T02:34:04;39.17;;;18.77;;
7199;SDS011;3641;49.082;8.200;2022-12-01T02:36:40;36.90;;;17.90;;
7199;SDS011;3641;49.082;8.200;2022-12-01T02:39:14;36.75;;;18.67;;
7199;SDS011;3641;49.082;8.200;2022-12-01T02:41:47;37.90;;;18.52;;
7199;SDS011;3641;49.082;8.200;2022-12-01T02:44:17;36.40;;;19.05;;
7199;SDS011;3641;49.082;8.200;2022-12-01T02:46:50;33.78;;;17.95;;
7199;SDS011;3641;49.082;8.200;2022-12-01T02:49:21;36.45;;;18.90;;
7199;SDS011;3641;49.082;8.200;2022-12-01T02:51:51;37.90;;;17.92;;
7199;SDS011;3641;49.082;8.200;2022-12-01T02:54:20;34.03;;;17.73;;
7199;SDS011;3641;49.082;8.200;2022-12-01T02:56:50;36.78;;;18.25;;
7199;SDS011;3641;49.082;8.200;2022-12-01T02:59:17;34.58;;;18.73;;
7199;SDS011;3641;49.082;8.200;2022-12-01T03:01:52;32.35;;;17.10;;
7199;SDS011;3641;49.082;8.200;2022-12-01T03:04:30;33.92;;;17.73;;
7199;SDS011;3641;49.082;8.200;2022-12-01T03:07:08;35.67;;;18.85;;
7199;SDS011;3641;49.082;8.200;2022-12-01T03:09:46;35.53;;;18.17;;
7199;SDS011;3641;49.082;8.200;2022-12-01T03:12:22;34.70;;;17.90;;
7199;SDS011;3641;49.082;8.200;2022-12-01T03:14:57;36.38;;;18.40;;
7199;SDS011;3641;49.082;8.200;2022-12-01T03:17:35;34.28;;;16.92;;
7199;SDS011;3641;49.082;8.200;2022-12-01T03:20:07;36.40;;;18.02;;
7199;SDS011;3641;49.082;8.200;2022-12-01T03:22:38;37.90;;;19.38;;
7199;SDS011;3641;49.082;8.200;2022-12-01T03:25:08;35.33;;;17.70;;
7199;SDS011;3641;49.082;8.200;2022-12-01T03:27:38;36.92;;;19.00;;
7199;SDS011;3641;49.082;8.200;2022-12-01T03:30:09;36.35;;;18.80;;
7199;SDS011;3641;49.082;8.200;2022-12-01T03:32:40;34.35;;;18.77;;
7199;SDS011;3641;49.082;8.200;2022-12-01T03:35:13;35.78;;;18.70;;
7199;SDS011;3641;49.082;8.200;2022-12-01T03:37:44;35.55;;;17.83;;
7199;SDS011;3641;49.082;8.200;2022-12-01T03:40:16;38.03;;;18.52;;
7199;SDS011;3641;49.082;8.200;2022-12-01T03:42:51;37.67;;;19.42;;
7199;SDS011;3641;49.082;8.200;2022-12-01T03:45:23;36.00;;;17.67;;
7199;SDS011;3641;49.082;8.200;2022-12-01T03:47:54;34.40;;;17.40;;
7199;SDS011;3641;49.082;8.200;2022-12-01T03:50:21;35.67;;;17.98;;
7199;SDS011;3641;49.082;8.200;2022-12-01T03:52:58;35.45;;;17.25;;
7199;SDS011;3641;49.082;8.200;2022-12-01T03:55:33;36.08;;;16.85;;
7199;SDS011;3641;49.082;8.200;2022-12-01T03:58:04;35.20;;;17.67;;
7199;SDS011;3641;49.082;8.200;2022-12-01T04:00:34;29.05;;;15.82;;
7199;SDS011;3641;49.082;8.200;2022-12-01T04:03:03;29.33;;;14.63;;
7199;SDS011;3641;49.082;8.200;2022-12-01T04:05:30;28.25;;;14.18;;
7199;SDS011;3641;49.082;8.200;2022-12-01T04:07:59;29.38;;;13.88;;
7199;SDS011;3641;49.082;8.200;2022-12-01T04:10:25;24.33;;;12.55;;
7199;SDS011;3641;49.082;8.200;2022-12-01T04:12:52;26.17;;;13.05;;
7199;SDS011;3641;49.082;8.200;2022-12-01T04:15:23;24.77;;;13.13;;
7199;SDS011;3641;49.082;8.200;2022-12-01T04:17:50;25.35;;;14.07;;
7199;SDS011;3641;49.082;8.200;2022-12-01T04:20:18;25.30;;;13.70;;
7199;SDS011;3641;49.082;8.200;2022-12-01T04:22:45;24.92;;;13.00;;
7199;SDS011;3641;49.082;8.200;2022-12-01T04:25:11;26.05;;;13.60;;
7199;SDS011;3641;49.082;8.200;2022-12-01T04:27:38;24.85;;;12.65;;
7199;SDS011;3641;49.082;8.200;2022-12-01T04:30:06;24.13;;;13.15;;
7199;SDS011;3641;49.082;8.200;2022-12-01T04:32:36;29.98;;;13.75;;
7199;SDS011;3641;49.082;8.200;2022-12-01T04:35:03;27.63;;;13.88;;
7199;SDS011;3641;49.082;8.200;2022-12-01T04:37:31;25.25;;;13.48;;
7199;SDS011;3641;49.082;8.200;2022-12-01T04:39:58;28.10;;;14.15;;
7199;SDS011;3641;49.082;8.200;2022-12-01T04:42:24;25.50;;;14.20;;
7199;SDS011;3641;49.082;8.200;2022-12-01T04:44:51;25.92;;;14.60;;
7199;SDS011;3641;49.082;8.200;2022-12-01T04:47:17;24.88;;;13.65;;
7199;SDS011;3641;49.082;8.200;2022-12-01T04:49:44;27.13;;;14.20;;
7199;SDS011;3641;49.082;8.200;2022-12-01T04:52:10;25.77;;;14.15;;
7199;SDS011;3641;49.082;8.200;2022-12-01T04:54:38;26.83;;;14.10;;
7199;SDS011;3641;49.082;8.200;2022-12-01T04:57:05;27.55;;;14.73;;
7199;SDS011;3641;49.082;8.200;2022-12-01T04:59:31;30.20;;;14.43;;
7199;SDS011;3641;49.082;8.200;2022-12-01T05:01:58;27.40;;;15.07;;
7199;SDS011;3641;49.082;8.200;2022-12-01T05:04:26;30.17;;;14.52;;
7199;SDS011;3641;49.082;8.200;2022-12-01T05:06:55;28.33;;;14.68;;
7199;SDS011;3641;49.082;8.200;2022-12-01T05:09:21;28.60;;;14.48;;
7199;SDS011;3641;49.082;8.200;2022-12-01T05:11:49;30.02;;;15.27;;
7199;SDS011;3641;49.082;8.200;2022-12-01T05:14:16;29.55;;;15.88;;
7199;SDS011;3641;49.082;8.200;2022-12-01T05:16:42;27.50;;;14.55;;
7199;SDS011;3641;49.082;8.200;2022-12-01T05:19:09;30.10;;;15.85;;
7199;SDS011;3641;49.082;8.200;2022-12-01T05:21:53;29.95;;;15.60;;
7199;SDS011;3641;49.082;8.200;2022-12-01T05:24:20;28.20;;;14.57;;
7199;SDS011;3641;49.082;8.200;2022-12-01T05:26:46;29.52;;;15.05;;
7199;SDS011;3641;49.082;8.200;2022-12-01T05:29:14;27.83;;;14.10;;
7199;SDS011;3641;49.082;8.200;2022-12-01T05:31:41;28.58;;;14.88;;
7199;SDS011;3641;49.082;8.200;2022-12-01T05:34:07;30.73;;;14.88;;
7199;SDS011;3641;49.082;8.200;2022-12-01T05:36:34;29.25;;;14.55;;
7199;SDS011;3641;49.082;8.200;2022-12-01T05:39:01;29.50;;;15.43;;
7199;SDS011;3641;49.082;8.200;2022-12-01T05:41:28;30.85;;;15.43;;
7199;SDS011;3641;49.082;8.200;2022-12-01T05:43:54;30.67;;;15.25;;
7199;SDS011;3641;49.082;8.200;2022-12-01T05:46:22;29.25;;;15.45;;
7199;SDS011;3641;49.082;8.200;2022-12-01T05:48:49;29.40;;;15.05;;
7199;SDS011;3641;49.082;8.200;2022-12-01T05:51:15;30.17;;;15.13;;
7199;SDS011;3641;49.082;8.200;2022-12-01T05:53:42;28.10;;;15.82;;
7199;SDS011;3641;49.082;8.200;2022-12-01T05:56:09;26.80;;;14.35;;
7199;SDS011;3641;49.082;8.200;2022-12-01T05:58:36;26.40;;;14.68;;
7199;SDS011;3641;49.082;8.200;2022-12-01T06:01:03;28.15;;;14.93;;
7199;SDS011;3641;49.082;8.200;2022-12-01T06:03:31;30.15;;;14.07;;
7199;SDS011;3641;49.082;8.200;2022-12-01T06:05:57;26.10;;;13.85;;
7199;SDS011;3641;49.082;8.200;2022-12-01T06:08:24;27.27;;;13.50;;
7199;SDS011;3641;49.082;8.200;2022-12-01T06:10:50;28.58;;;14.75;;
7199;SDS011;3641;49.082;8.200;2022-12-01T06:13:17;27.75;;;14.13;;
7199;SDS011;3641;49.082;8.200;2022-12-01T06:15:43;27.75;;;14.38;;
7199;SDS011;3641;49.082;8.200;2022-12-01T06:18:10;24.63;;;13.05;;
7199;SDS011;3641;49.082;8.200;2022-12-01T06:20:38;26.05;;;13.55;;
7199;SDS011;3641;49.082;8.200;2022-12-01T06:23:04;25.98;;;13.65;;
7199;SDS011;3641;49.082;8.200;2022-12-01T06:25:31;26.05;;;13.75;;
7199;SDS011;3641;49.082;8.200;2022-12-01T06:27:57;25.38;;;14.00;;
7199;SDS011;3641;49.082;8.200;2022-12-01T06:30:24;24.75;;;12.98;;
7199;SDS011;3641;49.082;8.200;2022-12-01T06:32:51;25.23;;;14.23;;
7199;SDS011;3641;49.082;8.200;2022-12-01T06:35:18;24.35;;;13.23;;
7199;SDS011;3641;49.082;8.200;2022-12-01T06:37:46;26.75;;;14.77;;
7199;SDS011;3641;49.082;8.200;2022-12-01T06:40:12;24.35;;;13.25;;
7199;SDS011;3641;49.082;8.200;2022-12-01T06:42:39;26.75;;;14.02;;
7199;SDS011;3641;49.082;8.200;2022-12-01T06:45:06;26.48;;;13.27;;
7199;SDS011;3641;49.082;8.200;2022-12-01T06:47:34;24.20;;;13.35;;
7199;SDS011;3641;49.082;8.200;2022-12-01T06:50:01;24.05;;;12.80;;
7199;SDS011;3641;49.082;8.200;2022-12-01T06:52:28;25.42;;;13.20;;
7199;SDS011;3641;49.082;8.200;2022-12-01T06:54:56;26.70;;;14.02;;
7199;SDS011;3641;49.082;8.200;2022-12-01T06:57:24;28.98;;;14.93;;
7199;SDS011;3641;49.082;8.200;2022-12-01T06:59:50;27.70;;;13.38;;
7199;SDS011;3641;49.082;8.200;2022-12-01T07:02:17;29.48;;;14.20;;
7199;SDS011;3641;49.082;8.200;2022-12-01T07:04:43;29.42;;;14.02;;
7199;SDS011;3641;49.082;8.200;2022-12-01T07:07:10;27.02;;;14.05;;
7199;SDS011;3641;49.082;8.200;2022-12-01T07:09:37;28.20;;;14.90;;
7199;SDS011;3641;49.082;8.200;2022-12-01T07:12:05;27.98;;;14.57;;
7199;SDS011;3641;49.082;8.200;2022-12-01T07:14:32;26.70;;;14.52;;
7199;SDS011;3641;49.082;8.200;2022-12-01T07:16:59;26.52;;;14.35;;
7199;SDS011;3641;49.082;8.200;2022-12-01T07:19:26;26.30;;;14.30;;
7199;SDS011;3641;49.082;8.200;2022-12-01T07:21:52;28.20;;;14.82;;
7199;SDS011;3641;49.082;8.200;2022-12-01T07:24:19;25.48;;;13.73;;
7199;SDS011;3641;49.082;8.200;2022-12-01T07:26:45;25.33;;;14.00;;
7199;SDS011;3641;49.082;8.200;2022-12-01T07:29:13;25.85;;;13.50;;
7199;SDS011;3641;49.082;8.200;2022-12-01T07:31:40;25.90;;;13.60;;
7199;SDS011;3641;49.082;8.200;2022-12-01T07:34:09;27.23;;;14.63;;
7199;SDS011;3641;49.082;8.200;2022-12-01T07:36:36;26.05;;;13.05;;
7199;SDS011;3641;49.082;8.200;2022-12-01T07:39:03;26.40;;;13.88;;
7199;SDS011;3641;49.082;8.200;2022-12-01T07:41:31;24.67;;;13.57;;
7199;SDS011;3641;49.082;8.200;2022-12-01T07:43:58;23.88;;;12.88;;
7199;SDS011;3641;49.082;8.200;2022-12-01T07:46:27;26.27;;;14.80;;
7199;SDS011;3641;49.082;8.200;2022-12-01T07:48:54;27.70;;;15.40;;
7199;SDS011;3641;49.082;8.200;2022-12-01T07:51:21;25.95;;;13.57;;
7199;SDS011;3641;49.082;8.200;2022-12-01T07:53:50;22.63;;;12.48;;
7199;SDS011;3641;49.082;8.200;2022-12-01T07:56:17;23.40;;;13.13;;
7199;SDS011;3641;49.082;8.200;2022-12-01T07:58:44;26.80;;;13.25;;
7199;SDS011;3641;49.082;8.200;2022-12-01T08:01:12;23.88;;;12.93;;
7199;SDS011;3641;49.082;8.200;2022-12-01T08:03:42;22.33;;;12.18;;
7199;SDS011;3641;49.082;8.200;2022-12-01T08:06:09;21.52;;;11.75;;
7199;SDS011;3641;49.082;8.200;2022-12-01T08:08:37;22.25;;;11.63;;
7199;SDS011;3641;49.082;8.200;2022-12-01T08:11:07;22.13;;;12.63;;
7199;SDS011;3641;49.082;8.200;2022-12-01T08:13:35;25.58;;;13.75;;
7199;SDS011;3641;49.082;8.200;2022-12-01T08:16:03;26.10;;;13.15;;
7199;SDS011;3641;49.082;8.200;2022-12-01T08:18:30;25.58;;;13.05;;
7199;SDS011;3641;49.082;8.200;2022-12-01T08:21:00;24.98;;;13.30;;
7199;SDS011;3641;49.082;8.200;2022-12-01T08:23:27;25.13;;;13.20;;
7199;SDS011;3641;49.082;8.200;2022-12-01T08:25:53;26.48;;;13.40;;
7199;SDS011;3641;49.082;8.200;2022-12-01T08:28:21;24.98;;;13.25;;
7199;SDS011;3641;49.082;8.200;2022-12-01T08:30:48;25.85;;;14.65;;
7199;SDS011;3641;49.082;8.200;2022-12-01T08:33:14;25.15;;;13.35;;
7199;SDS011;3641;49.082;8.200;2022-12-01T08:35:41;23.77;;;12.65;;
7199;SDS011;3641;49.082;8.200;2022-12-01T08:38:09;23.65;;;12.80;;
7199;SDS011;3641;49.082;8.200;2022-12-01T08:40:36;25.08;;;13.15;;
7199;SDS011;3641;49.082;8.200;2022-12-01T08:43:02;23.23;;;12.60;;
7199;SDS011;3641;49.082;8.200;2022-12-01T08:45:29;22.52;;;12.52;;
7199;SDS011;3641;49.082;8.200;2022-12-01T08:47:56;22.52;;;12.68;;
7199;SDS011;3641;49.082;8.200;2022-12-01T08:50:23;24.38;;;12.40;;
7199;SDS011;3641;49.082;8.200;2022-12-01T08:52:51;19.95;;;11.65;;
7199;SDS011;3641;49.082;8.200;2022-12-01T08:55:19;22.08;;;12.40;;
7199;SDS011;3641;49.082;8.200;2022-12-01T08:57:46;29.13;;;14.02;;
7199;SDS011;3641;49.082;8.200;2022-12-01T09:00:13;21.70;;;11.98;;
7199;SDS011;3641;49.082;8.200;2022-12-01T09:02:40;22.27;;;12.13;;
7199;SDS011;3641;49.082;8.200;2022-12-01T09:05:07;21.75;;;12.50;;
7199;SDS011;3641;49.082;8.200;2022-12-01T09:07:34;23.85;;;12.48;;
7199;SDS011;3641;49.082;8.200;2022-12-01T09:10:00;20.40;;;11.82;;
7199;SDS011;3641;49.082;8.200;2022-12-01T09:12:28;21.70;;;11.43;;
7199;SDS011;3641;49.082;8.200;2022-12-01T09:14:55;22.52;;;11.43;;
7199;SDS011;3641;49.082;8.200;2022-12-01T09:17:21;26.13;;;13.30;;
7199;SDS011;3641;49.082;8.200;2022-12-01T09:19:48;24.23;;;12.48;;
7199;SDS011;3641;49.082;8.200;2022-12-01T09:22:15;24.83;;;12.70;;
7199;SDS011;3641;49.082;8.200;2022-12-01T09:24:41;24.73;;;13.43;;
7199;SDS011;3641;49.082;8.200;2022-12-01T09:27:08;25.17;;;13.05;;
7199;SDS011;3641;49.082;8.200;2022-12-01T09:29:36;30.13;;;14.40;;
7199;SDS011;3641;49.082;8.200;2022-12-01T09:32:03;26.92;;;13.93;;
7199;SDS011;3641;49.082;8.200;2022-12-01T09:34:30;24.50;;;13.23;;
7199;SDS011;3641;49.082;8.200;2022-12-01T09:36:56;27.15;;;14.65;;
7199;SDS011;3641;49.082;8.200;2022-12-01T09:39:23;26.65;;;14.20;;
7199;SDS011;3641;49.082;8.200;2022-12-01T09:41:52;28.35;;;14.50;;
7199;SDS011;3641;49.082;8.200;2022-12-01T09:44:27;27.48;;;13.45;;
7199;SDS011;3641;49.082;8.200;2022-12-01T09:47:04;27.80;;;14.95;;
7199;SDS011;3641;49.082;8.200;2022-12-01T09:49:38;25.67;;;14.02;;
7199;SDS011;3641;49.082;8.200;2022-12-01T09:52:19;30.02;;;14.63;;
7199;SDS011;3641;49.082;8.200;2022-12-01T09:54:48;26.20;;;13.25;;
7199;SDS011;3641;49.082;8.200;2022-12-01T09:57:20;29.30;;;13.63;;
7199;SDS011;3641;49.082;8.200;2022-12-01T09:59:53;25.75;;;13.20;;
7199;SDS011;3641;49.082;8.200;2022-12-01T10:02:31;29.17;;;14.85;;
7199;SDS011;3641;49.082;8.200;2022-12-01T10:05:03;26.05;;;13.77;;
7199;SDS011;3641;49.082;8.200;2022-12-01T10:07:32;26.67;;;14.30;;
7199;SDS011;3641;49.082;8.200;2022-12-01T10:10:03;30.27;;;14.65;;
7199;SDS011;3641;49.082;8.200;2022-12-01T10:12:33;28.23;;;14.13;;
7199;SDS011;3641;49.082;8.200;2022-12-01T10:15:09;27.38;;;13.73;;
7199;SDS011;3641;49.082;8.200;2022-12-01T10:17:44;23.77;;;12.70;;
7199;SDS011;3641;49.082;8.200;2022-12-01T10:20:19;22.52;;;11.90;;
7199;SDS011;3641;49.082;8.200;2022-12-01T10:25:45;26.58;;;13.27;;
7199;SDS011;3641;49.082;8.200;2022-12-01T10:28:29;34.17;;;14.13;;
7199;SDS011;3641;49.082;8.200;2022-12-01T10:31:11;28.30;;;12.80;;
7199;SDS011;3641;49.082;8.200;2022-12-01T10:33:47;26.50;;;13.90;;
7199;SDS011;3641;49.082;8.200;2022-12-01T10:36:22;25.27;;;13.13;;
7199;SDS011;3641;49.082;8.200;2022-12-01T10:38:50;27.30;;;13.80;;
7199;SDS011;3641;49.082;8.200;2022-12-01T10:41:17;25.60;;;12.57;;
7199;SDS011;3641;49.082;8.200;2022-12-01T10:43:46;26.10;;;13.07;;
7199;SDS011;3641;49.082;8.200;2022-12-01T10:46:18;25.02;;;12.32;;
7199;SDS011;3641;49.082;8.200;2022-12-01T10:48:54;28.60;;;13.32;;
7199;SDS011;3641;49.082;8.200;2022-12-01T10:51:22;26.63;;;12.88;;
7199;SDS011;3641;49.082;8.200;2022-12-01T10:53:48;27.42;;;14.48;;
7199;SDS011;3641;49.082;8.200;2022-12-01T10:56:22;27.55;;;14.43;;
7199;SDS011;3641;49.082;8.200;2022-12-01T10:58:49;29.67;;;14.35;;
7199;SDS011;3641;49.082;8.200;2022-12-01T11:01:19;29.77;;;14.80;;
7199;SDS011;3641;49.082;8.200;2022-12-01T11:03:50;25.63;;;13.50;;
7199;SDS011;3641;49.082;8.200;2022-12-01T11:06:23;29.95;;;15.07;;
7199;SDS011;3641;49.082;8.200;2022-12-01T11:08:52;26.52;;;14.77;;
7199;SDS011;3641;49.082;8.200;2022-12-01T11:11:26;32.85;;;15.48;;
7199;SDS011;3641;49.082;8.200;2022-12-01T11:13:56;28.52;;;14.73;;
7199;SDS011;3641;49.082;8.200;2022-12-01T11:16:38;35.17;;;16.70;;
7199;SDS011;3641;49.082;8.200;2022-12-01T11:19:20;32.40;;;16.48;;
7199;SDS011;3641;49.082;8.200;2022-12-01T11:21:55;30.52;;;15.80;;
7199;SDS011;3641;49.082;8.200;2022-12-01T11:27:13;31.55;;;15.48;;
7199;SDS011;3641;49.082;8.200;2022-12-01T11:29:42;30.10;;;15.68;;
7199;SDS011;3641;49.082;8.200;2022-12-01T11:32:13;27.48;;;15.20;;
7199;SDS011;3641;49.082;8.200;2022-12-01T11:34:46;27.63;;;14.45;;
7199;SDS011;3641;49.082;8.200;2022-12-01T11:37:18;30.65;;;15.13;;
7199;SDS011;3641;49.082;8.200;2022-12-01T11:39:47;31.05;;;15.63;;
7199;SDS011;3641;49.082;8.200;2022-12-01T11:42:17;32.95;;;16.10;;
7199;SDS011;3641;49.082;8.200;2022-12-01T11:44:48;31.02;;;15.57;;
7199;SDS011;3641;49.082;8.200;2022-12-01T11:47:18;37.50;;;17.35;;
7199;SDS011;3641;49.082;8.200;2022-12-01T11:49:52;30.23;;;15.77;;
7199;SDS011;3641;49.082;8.200;2022-12-01T11:52:23;28.05;;;14.82;;
7199;SDS011;3641;49.082;8.200;2022-12-01T11:54:53;32.85;;;16.10;;
7199;SDS011;3641;49.082;8.200;2022-12-01T11:57:21;30.88;;;15.48;;
7199;SDS011;3641;49.082;8.200;2022-12-01T11:59:48;32.20;;;16.05;;
7199;SDS011;3641;49.082;8.200;2022-12-01T12:02:18;27.67;;;15.23;;
7199;SDS011;3641;49.082;8.200;2022-12-01T12:05:19;28.13;;;14.88;;
7199;SDS011;3641;49.082;8.200;2022-12-01T12:08:02;33.00;;;16.20;;
7199;SDS011;3641;49.082;8.200;2022-12-01T12:10:38;30.20;;;14.98;;
7199;SDS011;3641;49.082;8.200;2022-12-01T12:13:20;26.52;;;14.60;;
7199;SDS011;3641;49.082;8.200;2022-12-01T12:15:59;28.67;;;14.88;;
7199;SDS011;3641;49.082;8.200;2022-12-01T12:18:37;28.58;;;13.85;;
7199;SDS011;3641;49.082;8.200;2022-12-01T12:21:19;26.15;;;14.10;;
7199;SDS011;3641;49.082;8.200;2022-12-01T12:24:10;27.80;;;14.02;;
7199;SDS011;3641;49.082;8.200;2022-12-01T12:26:59;25.73;;;13.38;;
7199;SDS011;3641;49.082;8.200;2022-12-01T12:29:41;26.75;;;13.40;;
7199;SDS011;3641;49.082;8.200;2022-12-01T12:32:25;25.40;;;13.25;;
7199;SDS011;3641;49.082;8.200;2022-12-01T12:35:04;26.85;;;13.23;;
7199;SDS011;3641;49.082;8.200;2022-12-01T12:37:42;24.95;;;13.43;;
7199;SDS011;3641;49.082;8.200;2022-12-01T12:40:25;29.45;;;14.65;;
7199;SDS011;3641;49.082;8.200;2022-12-01T12:43:05;32.15;;;15.40;;
7199;SDS011;3641;49.082;8.200;2022-12-01T12:45:49;32.88;;;16.48;;
7199;SDS011;3641;49.082;8.200;2022-12-01T12:48:26;31.38;;;15.65;;
7199;SDS011;3641;49.082;8.200;2022-12-01T12:51:02;34.03;;;15.73;;
7199;SDS011;3641;49.082;8.200;2022-12-01T12:53:39;30.13;;;14.95;;
7199;SDS011;3641;49.082;8.200;2022-12-01T12:56:12;30.10;;;15.35;;
7199;SDS011;3641;49.082;8.200;2022-12-01T12:58:55;32.28;;;15.82;;
7199;SDS011;3641;49.082;8.200;2022-12-01T13:01:25;29.05;;;15.15;;
7199;SDS011;3641;49.082;8.200;2022-12-01T13:03:56;30.80;;;15.93;;
7199;SDS011;3641;49.082;8.200;2022-12-01T13:06:39;30.60;;;15.55;;
7199;SDS011;3641;49.082;8.200;2022-12-01T13:09:12;29.40;;;14.55;;
7199;SDS011;3641;49.082;8.200;2022-12-01T13:11:45;29.92;;;14.95;;
7199;SDS011;3641;49.082;8.200;2022-12-01T13:14:16;29.42;;;15.32;;
7199;SDS011;3641;49.082;8.200;2022-12-01T13:16:50;28.55;;;14.48;;
7199;SDS011;3641;49.082;8.200;2022-12-01T13:19:22;28.35;;;14.13;;
7199;SDS011;3641;49.082;8.200;2022-12-01T13:21:52;28.33;;;14.20;;
7199;SDS011;3641;49.082;8.200;2022-12-01T13:24:20;29.52;;;14.25;;
7199;SDS011;3641;49.082;8.200;2022-12-01T13:26:51;27.40;;;14.23;;
7199;SDS011;3641;49.082;8.200;2022-12-01T13:29:20;27.85;;;14.93;;
7199;SDS011;3641;49.082;8.200;2022-12-01T13:31:49;25.55;;;13.18;;
7199;SDS011;3641;49.082;8.200;2022-12-01T13:34:18;26.70;;;14.13;;
7199;SDS011;3641;49.082;8.200;2022-12-01T13:36:48;26.75;;;13.90;;
7199;SDS011;3641;49.082;8.200;2022-12-01T13:39:17;31.02;;;15.45;;
7199;SDS011;3641;49.082;8.200;2022-12-01T13:41:45;26.40;;;14.35;;
7199;SDS011;3641;49.082;8.200;2022-12-01T13:44:25;26.55;;;13.55;;
7199;SDS011;3641;49.082;8.200;2022-12-01T13:46:56;29.58;;;15.25;;
7199;SDS011;3641;49.082;8.200;2022-12-01T13:52:16;28.02;;;14.35;;
7199;SDS011;3641;49.082;8.200;2022-12-01T14:00:49;30.23;;;14.95;;
7199;SDS011;3641;49.082;8.200;2022-12-01T14:06:07;31.95;;;16.05;;
7199;SDS011;3641;49.082;8.200;2022-12-01T14:08:45;28.75;;;14.93;;
7199;SDS011;3641;49.082;8.200;2022-12-01T14:11:18;32.30;;;14.98;;
7199;SDS011;3641;49.082;8.200;2022-12-01T14:13:49;33.83;;;16.65;;
7199;SDS011;3641;49.082;8.200;2022-12-01T14:16:19;32.13;;;17.48;;
7199;SDS011;3641;49.082;8.200;2022-12-01T14:18:50;28.10;;;15.20;;
7199;SDS011;3641;49.082;8.200;2022-12-01T14:24:06;39.40;;;17.33;;
7199;SDS011;3641;49.082;8.200;2022-12-01T14:26:43;27.25;;;14.90;;
7199;SDS011;3641;49.082;8.200;2022-12-01T14:40:24;36.83;;;17.15;;
7199;SDS011;3641;49.082;8.200;2022-12-01T14:42:54;35.70;;;16.23;;
7199;SDS011;3641;49.082;8.200;2022-12-01T14:45:41;29.95;;;14.68;;
7199;SDS011;3641;49.082;8.200;2022-12-01T14:48:17;29.60;;;14.50;;
7199;SDS011;3641;49.082;8.200;2022-12-01T14:50:50;27.45;;;14.60;;
7199;SDS011;3641;49.082;8.200;2022-12-01T14:53:21;30.17;;;15.15;;
7199;SDS011;3641;49.082;8.200;2022-12-01T14:55:54;31.60;;;15.77;;
7199;SDS011;3641;49.082;8.200;2022-12-01T14:58:23;31.45;;;16.10;;
7199;SDS011;3641;49.082;8.200;2022-12-01T15:01:01;29.10;;;15.00;;
7199;SDS011;3641;49.082;8.200;2022-12-01T15:03:34;28.58;;;14.38;;
7199;SDS011;3641;49.082;8.200;2022-12-01T15:06:03;29.35;;;14.20;;
7199;SDS011;3641;49.082;8.200;2022-12-01T15:08:31;30.30;;;14.70;;
7199;SDS011;3641;49.082;8.200;2022-12-01T15:11:00;27.65;;;14.57;;
7199;SDS011;3641;49.082;8.200;2022-12-01T15:13:29;30.55;;;14.75;;
7199;SDS011;3641;49.082;8.200;2022-12-01T15:15:58;27.15;;;13.93;;
7199;SDS011;3641;49.082;8.200;2022-12-01T15:18:28;29.15;;;14.73;;
7199;SDS011;3641;49.082;8.200;2022-12-01T15:20:58;29.45;;;14.30;;
7199;SDS011;3641;49.082;8.200;2022-12-01T15:23:28;30.38;;;14.32;;
7199;SDS011;3641;49.082;8.200;2022-12-01T15:25:55;27.77;;;15.00;;
7199;SDS011;3641;49.082;8.200;2022-12-01T15:28:27;30.38;;;15.57;;
7199;SDS011;3641;49.082;8.200;2022-12-01T15:30:55;29.08;;;14.70;;
7199;SDS011;3641;49.082;8.200;2022-12-01T15:33:24;27.15;;;14.60;;
7199;SDS011;3641;49.082;8.200;2022-12-01T15:35:53;29.08;;;14.77;;
7199;SDS011;3641;49.082;8.200;2022-12-01T15:38:22;30.67;;;15.43;;
7199;SDS011;3641;49.082;8.200;2022-12-01T15:40:51;30.05;;;15.35;;